FRSO2: Muddy Boggy Cr, Farris, OK

Data processed at Fri May 24 2019 23:50


All information presented herein is the property of the government of the United States of America and may be revised or deleted at any time without prior notice.
Dissemination of this information without the expressed written consent of the Public Affairs Office, Tulsa District U.S. Army Corps of Engineers is strictly prohibited.
These data are gathered electronically and, as presented, have not undergone any form of quality control. These data are not guaranteed to be valid or correct.
Go to home page.
Go to station list.
Go to home page.

Upstream stations:

Downstream station:
Previous Day
Next Day
Current Day
    
SHEF ID:       FRSO2     Muddy Boggy Creek near Farris, O
STATION TYPE:  
Regulating: Stage =    43.00, Flow =    20800

               PRECIP PRECIP(A)     STAGE  RIV-FLOW  BAT-LOAD
                   in        in        ft       cfs      volt
              Ccp-Rev   Ccp-Rev   Ccp-Rev   Ccp-Rev   Ccp-Rev
(US/Central)
05/24 00:00      0.00      ----     22.67      3820     11.93
05/24 01:00      0.00      ----     22.47      3740     11.93
05/24 02:00      0.00      ----     22.23      3630     11.93
05/24 03:00      0.00      ----     22.03      3550     11.93
05/24 04:00      0.00      ----     21.79      3440     11.93
05/24 05:00      0.00      ----     21.58      3360     11.93
05/24 06:00      0.00      ----     21.39      3280     11.93
05/24 07:00      0.00      ----     21.17      3190     11.93
05/24 08:00      0.00      ----     20.99      3120     11.93
05/24 09:00      0.00      ----     20.79      3040     12.01
05/24 10:00      0.00      ----     20.62      2970     12.01
05/24 11:00      0.00      ----     20.42      2890     12.01
05/24 12:00      0.00      ----     20.26      2830     12.01
05/24 13:00      0.00      ----     20.02      2740     12.01
05/24 14:00      0.00      ----     19.72      2630     12.01
05/24 15:00      0.00      ----     19.47      2540     12.01
05/24 16:00      0.00      ----     19.22      2450     12.01
05/24 17:00      0.00      ----     18.87      2330     12.01
05/24 18:00      0.00      ----     18.55      2220     12.01
05/24 19:00      0.00      ----     18.30      2140     12.01
05/24 20:00      0.00      ----     18.07      2060     12.01
05/24 21:00      0.00      ----     17.85      1990     11.93
05/24 22:00      0.00      ----     17.67      1930     11.93
05/24 23:00      0.00      ----     17.51      1880     11.93